createdAt,value
2018-07-27T00:01:05.614Z,25.63
2018-07-27T00:03:40.370Z,25.59
2018-07-27T00:06:14.265Z,25.54
2018-07-27T00:08:47.035Z,25.57
2018-07-27T00:11:21.206Z,25.55
2018-07-27T00:13:54.966Z,25.56
2018-07-27T00:16:29.391Z,25.53
2018-07-27T00:19:02.404Z,25.48
2018-07-27T00:21:37.692Z,25.47
2018-07-27T00:24:11.451Z,25.52
2018-07-27T00:26:44.796Z,25.55
2018-07-27T00:29:19.136Z,25.43
2018-07-27T00:31:51.988Z,25.30
2018-07-27T00:34:26.041Z,25.22
2018-07-27T00:36:59.913Z,25.25
2018-07-27T00:39:37.382Z,25.25
2018-07-27T00:42:10.192Z,25.21
2018-07-27T00:44:45.486Z,25.11
2018-07-27T00:47:20.183Z,25.08
2018-07-27T00:49:53.727Z,24.98
2018-07-27T00:52:28.046Z,24.88
2018-07-27T00:55:04.773Z,24.82
2018-07-27T00:57:40.780Z,24.83
2018-07-27T01:00:16.476Z,24.85
2018-07-27T01:02:49.781Z,24.84
2018-07-27T01:05:32.446Z,24.88
2018-07-27T01:08:05.972Z,24.90
2018-07-27T01:10:40.981Z,24.88
2018-07-27T01:13:16.936Z,24.82
2018-07-27T01:15:49.716Z,24.72
2018-07-27T01:18:23.960Z,24.67
2018-07-27T01:20:59.197Z,24.65
2018-07-27T01:23:33.370Z,24.64
2018-07-27T01:26:08.513Z,24.65
2018-07-27T01:28:42.300Z,24.57
2018-07-27T01:31:15.885Z,24.61
2018-07-27T01:33:51.666Z,24.63
2018-07-27T01:36:24.703Z,24.61
2018-07-27T01:38:59.056Z,24.63
2018-07-27T01:41:33.258Z,24.70
2018-07-27T01:44:06.737Z,24.72
2018-07-27T01:46:40.512Z,24.72
2018-07-27T01:49:13.623Z,24.76
2018-07-27T01:51:48.002Z,24.75
2018-07-27T01:54:21.513Z,24.63
2018-07-27T01:56:55.238Z,24.57
2018-07-27T01:59:36.990Z,24.51
2018-07-27T02:02:10.208Z,24.45
2018-07-27T02:04:43.510Z,24.42
2018-07-27T02:07:17.102Z,24.33
2018-07-27T02:09:51.866Z,24.22
2018-07-27T02:12:26.039Z,24.18
2018-07-27T02:15:00.740Z,24.18
2018-07-27T02:17:37.278Z,24.23
2018-07-27T02:20:10.403Z,24.29
2018-07-27T02:22:44.707Z,24.18
2018-07-27T02:25:18.299Z,24.06
2018-07-27T02:27:53.460Z,23.87
2018-07-27T02:30:26.839Z,23.83
2018-07-27T02:33:00.522Z,23.88
2018-07-27T02:35:34.729Z,23.98
2018-07-27T02:38:07.656Z,23.92
2018-07-27T02:40:42.344Z,23.92
2018-07-27T02:43:19.114Z,24.01
2018-07-27T02:45:51.923Z,23.85
2018-07-27T02:48:25.639Z,23.70
2018-07-27T02:51:00.713Z,23.62
2018-07-27T02:53:33.756Z,23.53
2018-07-27T02:56:07.619Z,23.42
2018-07-27T02:58:40.790Z,23.33
2018-07-27T03:01:13.792Z,23.27
2018-07-27T03:03:49.878Z,23.20
2018-07-27T03:06:23.559Z,23.16
2018-07-27T03:08:56.616Z,23.30
2018-07-27T03:11:29.316Z,23.30
2018-07-27T03:14:03.750Z,23.30
2018-07-27T03:16:36.520Z,23.29
2018-07-27T03:19:09.411Z,23.26
2018-07-27T03:21:42.622Z,23.17
2018-07-27T03:24:18.364Z,23.05
2018-07-27T03:26:52.928Z,22.98
2018-07-27T03:29:27.295Z,22.93
2018-07-27T03:32:00.637Z,22.75
2018-07-27T03:34:33.513Z,22.53
2018-07-27T03:37:07.326Z,22.31
2018-07-27T03:39:41.528Z,22.18
2018-07-27T03:42:14.329Z,22.12
2018-07-27T03:44:48.366Z,22.20
2018-07-27T03:47:21.602Z,22.21
2018-07-27T03:49:55.298Z,22.20
2018-07-27T03:52:29.796Z,22.17
2018-07-27T03:55:02.488Z,22.15
2018-07-27T03:57:35.297Z,22.13
2018-07-27T04:00:14.337Z,22.13
2018-07-27T04:02:46.992Z,22.09
2018-07-27T04:05:19.859Z,22.12
2018-07-27T04:07:53.851Z,22.18
2018-07-27T04:10:26.487Z,22.24
2018-07-27T04:13:01.041Z,22.22
2018-07-27T04:15:38.193Z,22.21
2018-07-27T04:18:18.805Z,22.22
2018-07-27T04:20:52.023Z,22.25
2018-07-27T04:23:26.231Z,22.36
2018-07-27T04:25:59.031Z,22.53
2018-07-27T04:28:31.907Z,22.58
2018-07-27T04:31:05.251Z,22.54
2018-07-27T04:33:37.878Z,22.51
2018-07-27T04:36:11.098Z,22.46
2018-07-27T04:38:45.097Z,22.44
2018-07-27T04:41:17.884Z,22.47
2018-07-27T04:43:50.603Z,22.69
2018-07-27T04:46:23.810Z,22.98
2018-07-27T04:48:57.098Z,23.21
2018-07-27T04:51:29.926Z,23.34
2018-07-27T04:54:03.569Z,23.34
2018-07-27T04:56:37.434Z,23.33
2018-07-27T04:59:10.254Z,23.44
2018-07-27T05:01:45.883Z,23.46
2018-07-27T05:04:18.612Z,23.61
2018-07-27T05:06:53.081Z,23.76
2018-07-27T05:09:30.247Z,23.82
2018-07-27T05:12:02.873Z,23.85
2018-07-27T05:14:35.765Z,23.83
2018-07-27T05:17:10.934Z,23.85
2018-07-27T05:19:43.726Z,23.91
2018-07-27T05:22:18.365Z,23.96
2018-07-27T05:24:52.130Z,24.10
2018-07-27T05:27:24.814Z,24.30
2018-07-27T05:29:59.744Z,24.44
2018-07-27T05:32:34.218Z,24.55
2018-07-27T05:35:07.514Z,24.78
2018-07-27T05:37:40.611Z,24.99
2018-07-27T05:40:13.918Z,25.15
2018-07-27T05:42:50.248Z,25.28
2018-07-27T05:45:23.147Z,25.33
2018-07-27T05:47:56.004Z,25.44
2018-07-27T05:50:29.239Z,25.50
2018-07-27T05:53:02.039Z,25.53
2018-07-27T05:55:34.901Z,25.53
2018-07-27T05:58:10.086Z,25.58
2018-07-27T06:00:43.677Z,25.69
2018-07-27T06:03:16.438Z,25.81
2018-07-27T06:05:50.282Z,25.90
2018-07-27T06:08:23.011Z,26.06
2018-07-27T06:10:56.551Z,26.20
2018-07-27T06:13:33.051Z,26.26
2018-07-27T06:16:07.516Z,26.42
2018-07-27T06:18:40.348Z,26.50
2018-07-27T06:21:14.650Z,26.60
2018-07-27T06:23:47.408Z,26.75
2018-07-27T06:26:22.629Z,26.85
2018-07-27T06:28:55.354Z,26.94
2018-07-27T06:31:28.090Z,27.06
2018-07-27T06:34:00.804Z,27.13
2018-07-27T06:36:34.650Z,27.22
2018-07-27T06:39:11.162Z,27.26
2018-07-27T06:41:46.040Z,27.37
2018-07-27T06:44:20.026Z,27.51
2018-07-27T06:46:52.862Z,27.62
2018-07-27T06:49:26.549Z,27.76
2018-07-27T06:52:02.609Z,27.81
2018-07-27T06:54:35.777Z,27.90
2018-07-27T06:57:09.593Z,27.96
2018-07-27T06:59:42.343Z,28.00
2018-07-27T07:02:15.300Z,28.07
2018-07-27T07:04:47.991Z,28.13
2018-07-27T07:07:20.718Z,28.16
2018-07-27T07:09:53.981Z,28.22
2018-07-27T07:12:26.611Z,28.29
2018-07-27T07:14:59.372Z,28.32
2018-07-27T07:17:32.447Z,28.44
2018-07-27T07:20:08.472Z,28.74
2018-07-27T07:22:41.842Z,28.82
2018-07-27T07:25:15.292Z,28.90
2018-07-27T07:27:51.312Z,28.98
2018-07-27T07:30:26.486Z,29.06
2018-07-27T07:33:01.181Z,29.15
2018-07-27T07:35:35.231Z,29.28
2018-07-27T07:38:09.706Z,29.48
2018-07-27T07:40:42.541Z,29.63
2018-07-27T07:43:17.403Z,29.95
2018-07-27T07:45:51.594Z,30.52
2018-07-27T07:48:26.163Z,31.55
2018-07-27T07:50:59.199Z,32.75
2018-07-27T07:53:32.767Z,33.75
2018-07-27T07:56:27.744Z,34.52
2018-07-27T07:59:08.356Z,34.69
2018-07-27T08:01:42.083Z,35.29
2018-07-27T08:04:16.680Z,35.75
2018-07-27T08:06:49.875Z,36.32
2018-07-27T08:09:24.368Z,36.21
2018-07-27T08:12:02.319Z,36.31
2018-07-27T08:14:38.462Z,36.27
2018-07-27T08:17:14.343Z,36.19
2018-07-27T08:19:50.103Z,36.08
2018-07-27T08:22:24.285Z,36.09
2018-07-27T08:24:57.062Z,36.10
2018-07-27T08:27:30.281Z,35.94
2018-07-27T08:30:13.191Z,36.04
2018-07-27T08:32:50.825Z,35.82
2018-07-27T08:35:24.691Z,36.00
2018-07-27T08:37:57.367Z,36.14
2018-07-27T08:40:31.792Z,36.46
2018-07-27T08:43:05.825Z,36.75
2018-07-27T08:45:40.734Z,36.85
2018-07-27T08:48:15.176Z,36.55
2018-07-27T08:50:48.735Z,36.79
2018-07-27T08:53:22.734Z,36.73
2018-07-27T08:55:56.696Z,37.13
2018-07-27T08:58:29.270Z,37.22
2018-07-27T09:01:02.371Z,37.09
2018-07-27T09:03:36.110Z,37.60
2018-07-27T09:06:09.073Z,37.47
2018-07-27T09:08:41.983Z,37.66
2018-07-27T09:11:15.353Z,37.56
2018-07-27T09:13:48.651Z,37.31
2018-07-27T09:16:21.798Z,37.35
2018-07-27T09:18:58.500Z,37.22
2018-07-27T09:21:31.416Z,37.40
2018-07-27T09:24:08.645Z,37.37
2018-07-27T09:26:41.855Z,37.57
2018-07-27T09:29:18.881Z,37.78
2018-07-27T09:32:21.138Z,37.83
2018-07-27T09:34:57.287Z,37.44
2018-07-27T09:37:31.027Z,37.79
2018-07-27T09:40:07.528Z,38.07
2018-07-27T09:42:41.167Z,38.32
2018-07-27T09:45:16.562Z,38.59
2018-07-27T09:47:49.718Z,38.76
2018-07-27T09:50:24.475Z,38.68
2018-07-27T09:53:02.455Z,38.56
2018-07-27T09:55:37.282Z,38.53
2018-07-27T09:58:11.529Z,38.72
2018-07-27T10:00:52.567Z,38.58
2018-07-27T10:03:26.065Z,38.57
2018-07-27T10:06:01.954Z,38.35
2018-07-27T10:08:36.900Z,38.37
2018-07-27T10:11:11.642Z,38.38
2018-07-27T10:13:48.975Z,38.63
2018-07-27T10:16:23.545Z,38.81
2018-07-27T10:18:56.257Z,39.11
2018-07-27T10:21:30.582Z,38.87
2018-07-27T10:24:03.371Z,39.07
2018-07-27T10:26:37.701Z,38.93
2018-07-27T10:29:13.339Z,38.95
2018-07-27T10:31:48.821Z,39.07
2018-07-27T10:34:27.485Z,39.09
2018-07-27T10:37:12.969Z,39.19
2018-07-27T10:39:45.852Z,39.53
2018-07-27T10:42:18.527Z,39.37
2018-07-27T10:44:54.697Z,39.65
2018-07-27T10:47:28.580Z,39.95
2018-07-27T10:50:03.454Z,39.90
2018-07-27T10:52:37.011Z,39.77
2018-07-27T10:55:12.636Z,39.64
2018-07-27T10:57:46.691Z,39.33
2018-07-27T11:00:21.803Z,38.77
2018-07-27T11:02:56.371Z,39.41
2018-07-27T11:05:33.527Z,39.51
2018-07-27T11:08:07.607Z,39.17
2018-07-27T11:10:43.480Z,39.21
2018-07-27T11:13:20.506Z,39.25
2018-07-27T11:15:54.689Z,39.61
2018-07-27T11:18:29.487Z,39.78
2018-07-27T11:21:04.297Z,40.08
2018-07-27T11:23:37.983Z,40.05
2018-07-27T11:26:11.902Z,39.92
2018-07-27T11:29:01.584Z,40.05
2018-07-27T11:31:37.188Z,39.75
2018-07-27T11:34:11.483Z,39.49
2018-07-27T11:36:44.443Z,39.23
2018-07-27T11:39:20.365Z,38.69
2018-07-27T11:41:55.917Z,38.26
2018-07-27T11:44:33.695Z,38.23
2018-07-27T11:47:08.519Z,38.02
2018-07-27T11:49:41.695Z,38.02
2018-07-27T11:52:18.238Z,38.08
2018-07-27T11:54:52.193Z,38.43
2018-07-27T11:57:24.921Z,38.86
2018-07-27T11:59:59.615Z,39.05
2018-07-27T12:02:33.218Z,39.21
2018-07-27T12:05:06.772Z,39.37
2018-07-27T12:07:41.848Z,39.31
2018-07-27T12:10:14.641Z,39.36
2018-07-27T12:12:48.672Z,39.72
2018-07-27T12:15:23.638Z,40.03
2018-07-27T12:17:56.633Z,40.44
2018-07-27T12:20:33.548Z,40.50
2018-07-27T12:23:06.479Z,40.63
2018-07-27T12:25:39.524Z,40.71
2018-07-27T12:28:12.701Z,41.04
2018-07-27T12:30:46.401Z,41.14
2018-07-27T12:33:19.638Z,41.31
2018-07-27T12:35:53.668Z,41.35
2018-07-27T12:38:28.071Z,41.10
2018-07-27T12:41:00.870Z,41.08
2018-07-27T12:43:35.257Z,40.78
2018-07-27T12:46:09.602Z,40.75
2018-07-27T12:48:44.109Z,41.01
2018-07-27T12:53:51.597Z,41.00
2018-07-27T12:56:27.799Z,40.75
2018-07-27T12:59:00.863Z,40.37
2018-07-27T13:01:36.965Z,40.62
2018-07-27T13:04:11.997Z,40.59
2018-07-27T13:06:47.727Z,40.07
2018-07-27T13:09:22.203Z,40.22
2018-07-27T13:11:56.769Z,40.79
2018-07-27T13:14:31.027Z,41.34
2018-07-27T13:17:05.069Z,41.77
2018-07-27T13:19:37.887Z,42.14
2018-07-27T13:22:12.320Z,42.44
2018-07-27T13:24:59.925Z,42.40
2018-07-27T13:27:36.531Z,42.45
2018-07-27T13:30:31.007Z,42.57
2018-07-27T13:33:05.899Z,42.69
2018-07-27T13:35:47.680Z,42.69
2018-07-27T13:38:20.520Z,42.79
2018-07-27T13:41:01.469Z,42.80
2018-07-27T13:43:37.143Z,43.26
2018-07-27T13:46:10.782Z,43.47
2018-07-27T13:48:45.729Z,43.04
2018-07-27T13:51:19.879Z,43.06
2018-07-27T13:53:54.842Z,43.70
2018-07-27T13:56:28.848Z,43.59
2018-07-27T13:59:05.043Z,43.82
2018-07-27T14:01:38.601Z,43.72
2018-07-27T14:04:16.382Z,43.82
2018-07-27T14:06:52.188Z,43.65
2018-07-27T14:09:27.893Z,43.14
2018-07-27T14:12:03.349Z,42.91
2018-07-27T14:14:36.708Z,42.42
2018-07-27T14:17:12.694Z,42.24
2018-07-27T14:19:46.434Z,42.09
2018-07-27T14:22:19.754Z,42.65
2018-07-27T14:24:58.889Z,42.92
2018-07-27T14:27:33.593Z,43.23
2018-07-27T14:30:09.746Z,43.58
2018-07-27T14:32:47.827Z,43.73
2018-07-27T14:35:21.023Z,42.76
2018-07-27T14:37:53.847Z,42.98
2018-07-27T14:40:28.000Z,43.63
2018-07-27T14:43:01.729Z,43.86
2018-07-27T14:45:35.671Z,43.29
2018-07-27T14:48:12.639Z,42.84
2018-07-27T14:50:47.367Z,43.15
2018-07-27T14:53:20.395Z,43.61
2018-07-27T14:55:55.368Z,43.92
2018-07-27T14:58:29.240Z,43.83
2018-07-27T15:01:02.428Z,43.97
2018-07-27T15:03:36.796Z,44.18
2018-07-27T15:06:10.286Z,43.80
2018-07-27T15:08:46.611Z,43.61
2018-07-27T15:11:25.676Z,43.68
2018-07-27T15:13:58.784Z,43.48
2018-07-27T15:16:36.486Z,43.17
2018-07-27T15:19:11.106Z,42.89
2018-07-27T15:21:45.599Z,42.70
2018-07-27T15:24:19.759Z,42.96
2018-07-27T15:26:57.309Z,43.01
2018-07-27T15:29:31.485Z,42.86
2018-07-27T15:32:05.850Z,42.45
2018-07-27T15:34:39.334Z,42.22
2018-07-27T15:37:13.530Z,42.51
2018-07-27T15:39:47.469Z,42.99
2018-07-27T15:42:24.023Z,43.33
2018-07-27T15:44:57.323Z,43.43
2018-07-27T15:47:31.439Z,43.86
2018-07-27T15:50:09.313Z,44.14
2018-07-27T15:52:46.592Z,44.31
2018-07-27T15:55:19.882Z,44.07
2018-07-27T15:57:53.814Z,43.76
2018-07-27T16:00:28.204Z,43.80
2018-07-27T16:03:01.126Z,43.96
2018-07-27T16:05:35.410Z,43.67
2018-07-27T16:08:10.481Z,43.58
2018-07-27T16:10:45.250Z,43.03
2018-07-27T16:13:19.645Z,42.56
2018-07-27T16:15:55.467Z,42.80
2018-07-27T16:18:28.338Z,43.03
2018-07-27T16:21:09.406Z,43.28
2018-07-27T16:23:52.299Z,43.66
2018-07-27T16:26:27.729Z,43.63
2018-07-27T16:29:04.801Z,43.79
2018-07-27T16:31:38.407Z,44.29
2018-07-27T16:34:11.903Z,44.42
2018-07-27T16:36:46.867Z,44.20
2018-07-27T16:39:20.727Z,43.93
2018-07-27T16:41:55.503Z,43.07
2018-07-27T16:44:30.601Z,42.46
2018-07-27T16:47:03.276Z,42.43
2018-07-27T16:49:36.563Z,42.62
2018-07-27T16:52:10.448Z,42.76
2018-07-27T16:54:43.325Z,42.91
2018-07-27T16:57:16.670Z,42.78
2018-07-27T16:59:52.486Z,42.78
2018-07-27T17:02:27.819Z,42.76
2018-07-27T17:05:02.055Z,43.10
2018-07-27T17:07:35.543Z,42.88
2018-07-27T17:10:09.646Z,42.35
2018-07-27T17:12:43.974Z,42.31
2018-07-27T17:15:19.624Z,42.11
2018-07-27T17:17:56.194Z,41.56
2018-07-27T17:20:31.699Z,41.28
2018-07-27T17:23:05.644Z,40.71
2018-07-27T17:25:43.746Z,40.10
2018-07-27T17:28:22.580Z,39.74
2018-07-27T17:30:58.739Z,39.55
2018-07-27T17:33:37.109Z,39.64
2018-07-27T17:36:12.283Z,39.70
2018-07-27T17:38:46.157Z,39.57
2018-07-27T17:41:23.479Z,39.40
2018-07-27T17:43:57.384Z,39.32
2018-07-27T17:46:47.523Z,39.19
2018-07-27T17:49:22.503Z,38.98
2018-07-27T17:51:58.742Z,38.88
2018-07-27T17:54:36.067Z,38.81
2018-07-27T17:57:13.412Z,38.66
2018-07-27T17:59:48.826Z,38.48
2018-07-27T18:02:32.628Z,38.38
2018-07-27T18:05:09.146Z,38.34
2018-07-27T18:07:42.569Z,38.28
2018-07-27T18:10:16.238Z,38.11
2018-07-27T18:12:52.157Z,38.06
2018-07-27T18:15:28.579Z,37.97
2018-07-27T18:18:02.305Z,37.88
2018-07-27T18:20:36.390Z,37.78
2018-07-27T18:23:10.173Z,37.60
2018-07-27T18:25:42.940Z,37.37
2018-07-27T18:28:18.081Z,37.04
2018-07-27T18:30:54.771Z,36.49
2018-07-27T18:33:29.202Z,35.97
2018-07-27T18:36:05.527Z,35.65
2018-07-27T18:38:39.702Z,35.22
2018-07-27T18:41:17.375Z,34.84
2018-07-27T18:43:51.546Z,34.44
2018-07-27T18:46:28.768Z,34.13
2018-07-27T18:49:02.411Z,33.91
2018-07-27T18:51:35.474Z,33.72
2018-07-27T18:54:09.086Z,33.49
2018-07-27T18:56:51.688Z,33.25
2018-07-27T18:59:28.154Z,33.08
2018-07-27T19:02:02.223Z,32.89
2018-07-27T19:04:35.652Z,32.71
2018-07-27T19:07:09.023Z,32.63
2018-07-27T19:09:42.496Z,32.51
2018-07-27T19:12:17.778Z,32.30
2018-07-27T19:14:55.508Z,32.04
2018-07-27T19:17:31.452Z,31.85
2018-07-27T19:20:08.644Z,31.70
2018-07-27T19:22:42.304Z,31.50
2018-07-27T19:25:17.546Z,31.37
2018-07-27T19:27:51.249Z,31.20
2018-07-27T19:30:25.838Z,31.06
2018-07-27T19:33:00.655Z,30.85
2018-07-27T19:35:34.925Z,30.66
2018-07-27T19:38:08.580Z,30.43
2018-07-27T19:40:42.678Z,30.26
2018-07-27T19:43:16.043Z,30.10
2018-07-27T19:45:49.642Z,29.88
2018-07-27T19:48:23.343Z,29.58
2018-07-27T19:50:57.062Z,29.48
2018-07-27T19:53:30.742Z,29.34
2018-07-27T19:56:03.829Z,29.17
2018-07-27T19:58:39.851Z,29.06
2018-07-27T20:01:12.662Z,28.97
2018-07-27T20:03:47.386Z,28.86
2018-07-27T20:06:21.699Z,28.76
2018-07-27T20:08:55.475Z,28.65
2018-07-27T20:11:28.110Z,28.47
2018-07-27T20:14:01.589Z,28.32
2018-07-27T20:16:35.110Z,28.19
2018-07-27T20:19:12.973Z,28.12
2018-07-27T20:21:46.969Z,28.08
2018-07-27T20:24:22.229Z,28.00
2018-07-27T20:27:03.791Z,27.82
2018-07-27T20:29:38.562Z,27.76
2018-07-27T20:32:12.702Z,27.82
2018-07-27T20:34:47.055Z,27.79
2018-07-27T20:37:24.579Z,27.76
2018-07-27T20:39:58.588Z,27.81
2018-07-27T20:42:33.326Z,27.82
2018-07-27T20:45:08.803Z,27.81
2018-07-27T20:47:44.732Z,27.83
2018-07-27T20:50:19.486Z,27.83
2018-07-27T20:52:55.081Z,27.81
2018-07-27T20:55:27.771Z,27.88
2018-07-27T20:58:02.404Z,27.84
2018-07-27T21:00:38.035Z,27.81
2018-07-27T21:03:14.854Z,27.71
2018-07-27T21:05:49.507Z,27.65
2018-07-27T21:08:24.667Z,27.59
2018-07-27T21:10:59.798Z,27.54
2018-07-27T21:13:37.886Z,27.58
2018-07-27T21:16:13.256Z,27.58
2018-07-27T21:18:46.022Z,27.56
2018-07-27T21:21:20.656Z,27.52
2018-07-27T21:23:54.229Z,27.50
2018-07-27T21:26:29.468Z,27.42
2018-07-27T21:29:03.805Z,27.38
2018-07-27T21:31:36.760Z,27.37
2018-07-27T21:34:12.092Z,27.42
2018-07-27T21:36:45.774Z,27.42
2018-07-27T21:39:21.700Z,27.45
2018-07-27T21:41:58.215Z,27.57
2018-07-27T21:44:33.958Z,27.59
2018-07-27T21:47:07.602Z,27.64
2018-07-27T21:49:44.314Z,27.67
2018-07-27T21:52:20.206Z,27.60
2018-07-27T21:54:57.990Z,27.61
2018-07-27T21:57:35.278Z,27.62
2018-07-27T22:00:18.563Z,27.54
2018-07-27T22:02:56.875Z,27.52
2018-07-27T22:05:53.357Z,27.47
2018-07-27T22:08:28.759Z,27.45
2018-07-27T22:11:19.765Z,27.42
2018-07-27T22:14:00.555Z,27.44
2018-07-27T22:16:35.518Z,27.40
2018-07-27T22:19:12.555Z,27.36
2018-07-27T22:21:47.360Z,27.41
2018-07-27T22:24:26.108Z,27.43
2018-07-27T22:27:07.650Z,27.38
2018-07-27T22:30:21.603Z,27.44
2018-07-27T22:33:12.825Z,27.43
2018-07-27T22:35:50.862Z,27.44
2018-07-27T22:38:26.846Z,27.38
2018-07-27T22:41:06.639Z,27.37
2018-07-27T22:43:46.783Z,27.32
2018-07-27T22:46:31.519Z,27.26
2018-07-27T22:49:07.603Z,27.25
2018-07-27T22:52:00.708Z,27.18
2018-07-27T22:54:39.664Z,27.10
2018-07-27T22:57:22.755Z,27.07
2018-07-27T23:00:00.504Z,27.12
2018-07-27T23:02:45.268Z,27.14
2018-07-27T23:05:26.364Z,27.12
2018-07-27T23:08:03.892Z,27.11
2018-07-27T23:10:52.448Z,27.11
2018-07-27T23:14:08.981Z,26.95
2018-07-27T23:16:47.298Z,26.89
2018-07-27T23:19:25.425Z,26.94
2018-07-27T23:22:01.308Z,26.91
2018-07-27T23:24:37.378Z,26.92
2018-07-27T23:27:14.157Z,26.88
2018-07-27T23:29:49.686Z,26.85
2018-07-27T23:32:39.745Z,26.86
2018-07-27T23:35:15.129Z,26.86
2018-07-27T23:37:55.089Z,26.88
2018-07-27T23:40:29.766Z,26.82
2018-07-27T23:43:05.412Z,26.78
2018-07-27T23:45:51.585Z,26.78
2018-07-27T23:48:44.502Z,26.73
2018-07-27T23:51:25.476Z,26.72
2018-07-27T23:54:02.306Z,26.71
2018-07-27T23:56:43.531Z,26.69
2018-07-27T23:59:18.782Z,26.71
